パース の空港の天気 - METARとTAF

パース空港 ( YPPH / PER ) - オーストラリア 西オーストラリア州パース
飛行場実況気象(Metar)
観測時間06/24 17:30 AWST (06/24 09:30 UTC)
風向・風速西南西 3m/s
視程10km以上
天気現象
少しの雲 雲底高度 1280m
全天の8割程度の雲 雲底高度 1490m
気温17℃
湿度63%
気圧1021hPa
METARYPPH 240930Z 25005KT 9999 FEW042 BKN049 17/10 Q1021 NOSIG
過去の天気等 Google飛行場航空写真 Wunderground天気予報

過去48時間のMETAR

飛行場予報(TAF)
発表時間: 6/24 13:04 AWST (6/24 05:04 UTC)
予報対象時間: 24日14時 AWST ~ 25日20時 AWST
風向・風速西北西 4m/s
視程10km以上
全天の8割程度の雲 雲底高度 1520m
24日20時 AWST から
風向・風速北北東 3m/s
視程10km以上
全天の8割程度の雲 雲底高度 1520m
25日11時 AWST から
風向・風速北 6m/s
視程10km以上
なし
TAF YPPH 240504Z 2406/2512 29008KT 9999 BKN050
FM241200 02006KT 9999 BKN050
FM250300 35012KT CAVOK